sensor_id;sensor_type;location;lat;lon;timestamp;temperature;humidity
21518;DHT22;61765;45.794;24.150;2023-07-13T00:00:31;27.60;93.00
21518;DHT22;61765;45.794;24.150;2023-07-13T00:08:41;27.50;93.20
21518;DHT22;61765;45.794;24.150;2023-07-13T00:16:46;27.70;92.90
21518;DHT22;61765;45.794;24.150;2023-07-13T00:24:55;27.30;93.10
21518;DHT22;61765;45.794;24.150;2023-07-13T00:33:00;27.30;93.20
21518;DHT22;61765;45.794;24.150;2023-07-13T00:41:22;27.20;93.30
21518;DHT22;61765;45.794;24.150;2023-07-13T00:49:30;27.20;93.10
21518;DHT22;61765;45.794;24.150;2023-07-13T00:57:39;27.20;93.20
21518;DHT22;61765;45.794;24.150;2023-07-13T01:05:47;27.10;93.40
21518;DHT22;61765;45.794;24.150;2023-07-13T01:13:56;27.10;93.30
21518;DHT22;61765;45.794;24.150;2023-07-13T01:22:08;26.60;93.70
21518;DHT22;61765;45.794;24.150;2023-07-13T01:30:14;26.50;93.90
21518;DHT22;61765;45.794;24.150;2023-07-13T01:38:23;26.70;93.80
21518;DHT22;61765;45.794;24.150;2023-07-13T01:46:28;26.50;93.70
21518;DHT22;61765;45.794;24.150;2023-07-13T01:54:36;26.60;93.70
21518;DHT22;61765;45.794;24.150;2023-07-13T02:02:42;26.70;93.40
21518;DHT22;61765;45.794;24.150;2023-07-13T02:10:50;26.50;93.40
21518;DHT22;61765;45.794;24.150;2023-07-13T02:18:55;26.40;93.60
21518;DHT22;61765;45.794;24.150;2023-07-13T02:27:06;25.90;94.00
21518;DHT22;61765;45.794;24.150;2023-07-13T02:35:11;26.00;94.10
21518;DHT22;61765;45.794;24.150;2023-07-13T02:43:19;26.10;93.80
21518;DHT22;61765;45.794;24.150;2023-07-13T02:51:25;25.90;94.10
21518;DHT22;61765;45.794;24.150;2023-07-13T02:59:33;26.10;93.90
21518;DHT22;61765;45.794;24.150;2023-07-13T03:07:41;26.10;93.80
21518;DHT22;61765;45.794;24.150;2023-07-13T03:15:51;25.90;94.00
21518;DHT22;61765;45.794;24.150;2023-07-13T03:23:57;26.00;93.80
21518;DHT22;61765;45.794;24.150;2023-07-13T03:32:06;26.10;93.70
21518;DHT22;61765;45.794;24.150;2023-07-13T03:40:13;26.10;93.50
21518;DHT22;61765;45.794;24.150;2023-07-13T03:48:23;26.10;93.60
21518;DHT22;61765;45.794;24.150;2023-07-13T03:56:29;26.00;93.90
21518;DHT22;61765;45.794;24.150;2023-07-13T04:04:40;26.40;93.40
21518;DHT22;61765;45.794;24.150;2023-07-13T04:12:45;26.60;93.10
21518;DHT22;61765;45.794;24.150;2023-07-13T04:20:53;26.80;92.70
21518;DHT22;61765;45.794;24.150;2023-07-13T04:28:59;27.10;92.10
21518;DHT22;61765;45.794;24.150;2023-07-13T04:37:08;27.00;92.10
21518;DHT22;61765;45.794;24.150;2023-07-13T04:45:15;27.10;92.10
21518;DHT22;61765;45.794;24.150;2023-07-13T04:53:23;27.00;91.80
21518;DHT22;61765;45.794;24.150;2023-07-13T05:01:29;26.80;92.50
21518;DHT22;61765;45.794;24.150;2023-07-13T05:09:37;27.90;91.60
21518;DHT22;61765;45.794;24.150;2023-07-13T05:17:47;29.10;89.80
21518;DHT22;61765;45.794;24.150;2023-07-13T05:25:55;29.90;87.10
21518;DHT22;61765;45.794;24.150;2023-07-13T05:34:01;30.40;86.00
21518;DHT22;61765;45.794;24.150;2023-07-13T05:42:10;30.70;84.50
21518;DHT22;61765;45.794;24.150;2023-07-13T05:50:16;31.10;83.20
21518;DHT22;61765;45.794;24.150;2023-07-13T05:58:24;31.30;81.90
21518;DHT22;61765;45.794;24.150;2023-07-13T06:06:32;31.30;82.50
21518;DHT22;61765;45.794;24.150;2023-07-13T06:14:40;31.40;82.80
21518;DHT22;61765;45.794;24.150;2023-07-13T06:22:45;31.10;83.90
21518;DHT22;61765;45.794;24.150;2023-07-13T06:30:53;31.70;82.20
21518;DHT22;61765;45.794;24.150;2023-07-13T06:38:59;32.30;81.20
21518;DHT22;61765;45.794;24.150;2023-07-13T06:47:07;32.40;80.90
21518;DHT22;61765;45.794;24.150;2023-07-13T06:55:12;32.80;81.00
21518;DHT22;61765;45.794;24.150;2023-07-13T07:03:20;33.80;77.80
21518;DHT22;61765;45.794;24.150;2023-07-13T07:11:26;33.80;78.40
21518;DHT22;61765;45.794;24.150;2023-07-13T07:19:37;34.40;76.80
21518;DHT22;61765;45.794;24.150;2023-07-13T07:27:43;34.20;77.10
21518;DHT22;61765;45.794;24.150;2023-07-13T07:35:54;34.60;77.00
21518;DHT22;61765;45.794;24.150;2023-07-13T07:44:02;35.00;75.10
21518;DHT22;61765;45.794;24.150;2023-07-13T07:52:12;34.30;75.60
21518;DHT22;61765;45.794;24.150;2023-07-13T08:00:18;35.20;73.30
21518;DHT22;61765;45.794;24.150;2023-07-13T08:08:29;35.10;71.30
21518;DHT22;61765;45.794;24.150;2023-07-13T08:16:34;35.00;73.80
21518;DHT22;61765;45.794;24.150;2023-07-13T08:24:42;35.00;74.00
21518;DHT22;61765;45.794;24.150;2023-07-13T08:32:49;35.30;70.20
21518;DHT22;61765;45.794;24.150;2023-07-13T08:40:57;35.30;68.00
21518;DHT22;61765;45.794;24.150;2023-07-13T08:49:06;35.90;67.10
21518;DHT22;61765;45.794;24.150;2023-07-13T08:57:20;36.20;67.00
21518;DHT22;61765;45.794;24.150;2023-07-13T09:05:29;36.40;64.90
21518;DHT22;61765;45.794;24.150;2023-07-13T09:13:45;36.30;66.00
21518;DHT22;61765;45.794;24.150;2023-07-13T09:21:54;36.90;66.90
21518;DHT22;61765;45.794;24.150;2023-07-13T09:30:21;36.70;68.90
21518;DHT22;61765;45.794;24.150;2023-07-13T09:38:29;36.50;70.50
21518;DHT22;61765;45.794;24.150;2023-07-13T09:46:38;36.90;63.10
21518;DHT22;61765;45.794;24.150;2023-07-13T09:54:46;36.40;65.90
21518;DHT22;61765;45.794;24.150;2023-07-13T10:03:03;37.00;62.70
21518;DHT22;61765;45.794;24.150;2023-07-13T10:11:11;37.80;62.30
21518;DHT22;61765;45.794;24.150;2023-07-13T10:19:24;38.30;59.80
21518;DHT22;61765;45.794;24.150;2023-07-13T10:27:33;38.50;58.80
21518;DHT22;61765;45.794;24.150;2023-07-13T10:35:43;36.90;60.60
21518;DHT22;61765;45.794;24.150;2023-07-13T10:43:51;38.40;60.80
21518;DHT22;61765;45.794;24.150;2023-07-13T10:51:59;39.20;59.70
21518;DHT22;61765;45.794;24.150;2023-07-13T11:00:16;39.80;59.00
21518;DHT22;61765;45.794;24.150;2023-07-13T11:08:33;39.70;57.10
21518;DHT22;61765;45.794;24.150;2023-07-13T11:16:44;39.60;58.20
21518;DHT22;61765;45.794;24.150;2023-07-13T11:24:57;40.30;57.20
21518;DHT22;61765;45.794;24.150;2023-07-13T11:33:16;40.80;56.40
21518;DHT22;61765;45.794;24.150;2023-07-13T11:41:27;40.70;56.70
21518;DHT22;61765;45.794;24.150;2023-07-13T11:49:41;41.60;56.40
21518;DHT22;61765;45.794;24.150;2023-07-13T11:57:56;43.10;55.60
21518;DHT22;61765;45.794;24.150;2023-07-13T12:06:04;46.50;52.80
21518;DHT22;61765;45.794;24.150;2023-07-13T12:14:16;54.80;43.00
21518;DHT22;61765;45.794;24.150;2023-07-13T12:22:23;60.90;35.70
21518;DHT22;61765;45.794;24.150;2023-07-13T12:30:32;64.10;33.20
21518;DHT22;61765;45.794;24.150;2023-07-13T12:38:38;66.00;31.10
21518;DHT22;61765;45.794;24.150;2023-07-13T12:46:57;66.00;29.60
21518;DHT22;61765;45.794;24.150;2023-07-13T12:55:06;65.20;30.60
21518;DHT22;61765;45.794;24.150;2023-07-13T13:03:30;65.50;29.80
21518;DHT22;61765;45.794;24.150;2023-07-13T13:11:36;65.60;29.90
21518;DHT22;61765;45.794;24.150;2023-07-13T13:19:44;66.20;29.60
21518;DHT22;61765;45.794;24.150;2023-07-13T13:27:50;66.90;29.10
21518;DHT22;61765;45.794;24.150;2023-07-13T13:35:58;67.30;28.90
21518;DHT22;61765;45.794;24.150;2023-07-13T13:44:04;66.90;28.90
21518;DHT22;61765;45.794;24.150;2023-07-13T13:52:16;65.50;29.20
21518;DHT22;61765;45.794;24.150;2023-07-13T14:00:21;64.80;29.60
21518;DHT22;61765;45.794;24.150;2023-07-13T14:08:29;64.40;29.60
21518;DHT22;61765;45.794;24.150;2023-07-13T14:16:35;63.90;29.80
21518;DHT22;61765;45.794;24.150;2023-07-13T14:24:43;62.00;30.10
21518;DHT22;61765;45.794;24.150;2023-07-13T14:32:49;56.20;33.50
21518;DHT22;61765;45.794;24.150;2023-07-13T14:40:59;47.60;42.40
21518;DHT22;61765;45.794;24.150;2023-07-13T14:49:06;43.70;49.00
21518;DHT22;61765;45.794;24.150;2023-07-13T14:57:17;41.40;52.50
21518;DHT22;61765;45.794;24.150;2023-07-13T15:05:25;40.20;54.80
21518;DHT22;61765;45.794;24.150;2023-07-13T15:13:34;39.10;57.00
21518;DHT22;61765;45.794;24.150;2023-07-13T15:21:39;38.70;57.30
21518;DHT22;61765;45.794;24.150;2023-07-13T15:29:47;38.70;57.90
21518;DHT22;61765;45.794;24.150;2023-07-13T15:37:54;38.60;58.40
21518;DHT22;61765;45.794;24.150;2023-07-13T15:46:02;38.80;58.80
21518;DHT22;61765;45.794;24.150;2023-07-13T15:54:12;39.00;57.80
21518;DHT22;61765;45.794;24.150;2023-07-13T16:02:21;39.00;58.00
21518;DHT22;61765;45.794;24.150;2023-07-13T16:10:32;38.20;59.20
21518;DHT22;61765;45.794;24.150;2023-07-13T16:18:42;37.70;61.20
21518;DHT22;61765;45.794;24.150;2023-07-13T16:26:48;37.40;61.80
21518;DHT22;61765;45.794;24.150;2023-07-13T16:34:59;37.20;62.20
21518;DHT22;61765;45.794;24.150;2023-07-13T16:43:11;37.30;62.30
21518;DHT22;61765;45.794;24.150;2023-07-13T16:51:27;37.00;62.80
21518;DHT22;61765;45.794;24.150;2023-07-13T16:59:35;36.80;62.30
21518;DHT22;61765;45.794;24.150;2023-07-13T17:07:44;36.80;63.30
21518;DHT22;61765;45.794;24.150;2023-07-13T17:15:53;36.60;63.70
21518;DHT22;61765;45.794;24.150;2023-07-13T17:24:07;36.70;64.80
21518;DHT22;61765;45.794;24.150;2023-07-13T17:32:16;36.80;64.40
21518;DHT22;61765;45.794;24.150;2023-07-13T17:40:26;36.80;65.20
21518;DHT22;61765;45.794;24.150;2023-07-13T17:48:33;36.50;65.70
21518;DHT22;61765;45.794;24.150;2023-07-13T17:56:42;36.40;67.90
21518;DHT22;61765;45.794;24.150;2023-07-13T18:04:47;36.00;68.30
21518;DHT22;61765;45.794;24.150;2023-07-13T18:12:56;35.70;70.00
21518;DHT22;61765;45.794;24.150;2023-07-13T18:21:03;35.40;70.80
21518;DHT22;61765;45.794;24.150;2023-07-13T18:29:13;35.10;71.60
21518;DHT22;61765;45.794;24.150;2023-07-13T18:37:20;34.70;72.90
21518;DHT22;61765;45.794;24.150;2023-07-13T18:45:28;34.40;75.40
21518;DHT22;61765;45.794;24.150;2023-07-13T18:53:33;34.20;75.50
21518;DHT22;61765;45.794;24.150;2023-07-13T19:01:42;34.10;76.40
21518;DHT22;61765;45.794;24.150;2023-07-13T19:09:48;34.00;74.80
21518;DHT22;61765;45.794;24.150;2023-07-13T19:17:57;33.80;75.30
21518;DHT22;61765;45.794;24.150;2023-07-13T19:26:05;33.80;75.30
21518;DHT22;61765;45.794;24.150;2023-07-13T19:34:20;33.20;76.00
21518;DHT22;61765;45.794;24.150;2023-07-13T19:42:56;33.00;77.90
21518;DHT22;61765;45.794;24.150;2023-07-13T19:51:07;33.00;79.80
21518;DHT22;61765;45.794;24.150;2023-07-13T19:59:25;32.70;78.40
21518;DHT22;61765;45.794;24.150;2023-07-13T20:07:34;32.70;78.70
21518;DHT22;61765;45.794;24.150;2023-07-13T20:15:39;32.50;80.50
21518;DHT22;61765;45.794;24.150;2023-07-13T20:23:48;32.50;80.60
21518;DHT22;61765;45.794;24.150;2023-07-13T20:31:53;32.30;81.20
21518;DHT22;61765;45.794;24.150;2023-07-13T20:40:13;32.30;81.40
21518;DHT22;61765;45.794;24.150;2023-07-13T20:48:27;32.30;82.30
21518;DHT22;61765;45.794;24.150;2023-07-13T20:56:35;32.20;83.10
21518;DHT22;61765;45.794;24.150;2023-07-13T21:04:40;31.90;84.20
21518;DHT22;61765;45.794;24.150;2023-07-13T21:12:51;29.90;87.20
21518;DHT22;61765;45.794;24.150;2023-07-13T21:20:59;29.50;87.40
21518;DHT22;61765;45.794;24.150;2023-07-13T21:29:07;29.40;88.40
21518;DHT22;61765;45.794;24.150;2023-07-13T21:37:16;29.40;89.00
21518;DHT22;61765;45.794;24.150;2023-07-13T21:45:27;29.60;89.70
21518;DHT22;61765;45.794;24.150;2023-07-13T21:53:32;29.80;89.90
21518;DHT22;61765;45.794;24.150;2023-07-13T22:01:40;29.90;90.70
21518;DHT22;61765;45.794;24.150;2023-07-13T22:09:46;29.10;86.80
21518;DHT22;61765;45.794;24.150;2023-07-13T22:17:56;28.70;86.80
21518;DHT22;61765;45.794;24.150;2023-07-13T22:26:12;28.30;88.00
21518;DHT22;61765;45.794;24.150;2023-07-13T22:34:25;28.10;88.20
21518;DHT22;61765;45.794;24.150;2023-07-13T22:42:31;27.70;90.10
21518;DHT22;61765;45.794;24.150;2023-07-13T22:50:39;27.60;89.40
21518;DHT22;61765;45.794;24.150;2023-07-13T22:58:45;27.70;90.30
21518;DHT22;61765;45.794;24.150;2023-07-13T23:06:54;27.90;90.20
21518;DHT22;61765;45.794;24.150;2023-07-13T23:15:00;28.00;91.20
21518;DHT22;61765;45.794;24.150;2023-07-13T23:23:10;28.10;91.10
21518;DHT22;61765;45.794;24.150;2023-07-13T23:31:21;28.00;90.90
21518;DHT22;61765;45.794;24.150;2023-07-13T23:39:30;28.10;91.00
21518;DHT22;61765;45.794;24.150;2023-07-13T23:47:36;28.00;91.00
21518;DHT22;61765;45.794;24.150;2023-07-13T23:55:45;27.60;91.60
